sensor_id;sensor_type;location;lat;lon;timestamp;pressure;altitude;pressure_sealevel;temperature;humidity
3464;BME280;3551;41.578;24.706;2023-04-26T00:00:46;90260.63;;;10.33;100.00
3464;BME280;3551;41.578;24.706;2023-04-26T00:03:13;90255.63;;;10.35;100.00
3464;BME280;3551;41.578;24.706;2023-04-26T00:05:39;90258.84;;;10.27;100.00
3464;BME280;3551;41.578;24.706;2023-04-26T00:08:06;90262.53;;;10.33;100.00
3464;BME280;3551;41.578;24.706;2023-04-26T00:10:33;90260.91;;;10.39;100.00
3464;BME280;3551;41.578;24.706;2023-04-26T00:13:01;90260.28;;;10.31;100.00
3464;BME280;3551;41.578;24.706;2023-04-26T00:15:28;90252.47;;;10.40;100.00
3464;BME280;3551;41.578;24.706;2023-04-26T00:17:54;90249.66;;;10.47;100.00
3464;BME280;3551;41.578;24.706;2023-04-26T00:20:21;90245.47;;;10.46;100.00
3464;BME280;3551;41.578;24.706;2023-04-26T00:22:48;90254.44;;;10.56;100.00
3464;BME280;3551;41.578;24.706;2023-04-26T00:25:15;90245.03;;;10.48;100.00
3464;BME280;3551;41.578;24.706;2023-04-26T00:27:42;90248.59;;;10.61;100.00
3464;BME280;3551;41.578;24.706;2023-04-26T00:30:10;90250.53;;;10.60;100.00
3464;BME280;3551;41.578;24.706;2023-04-26T00:32:37;90245.78;;;10.68;100.00
3464;BME280;3551;41.578;24.706;2023-04-26T00:35:04;90243.53;;;10.66;100.00
3464;BME280;3551;41.578;24.706;2023-04-26T00:37:32;90243.59;;;10.63;100.00
3464;BME280;3551;41.578;24.706;2023-04-26T00:39:58;90230.34;;;10.76;100.00
3464;BME280;3551;41.578;24.706;2023-04-26T00:42:26;90225.63;;;10.63;100.00
3464;BME280;3551;41.578;24.706;2023-04-26T00:44:52;90223.22;;;10.69;100.00
3464;BME280;3551;41.578;24.706;2023-04-26T00:47:23;90225.31;;;10.61;100.00
3464;BME280;3551;41.578;24.706;2023-04-26T00:49:50;90226.25;;;10.51;100.00
3464;BME280;3551;41.578;24.706;2023-04-26T00:52:16;90236.34;;;10.44;100.00
3464;BME280;3551;41.578;24.706;2023-04-26T00:54:43;90228.56;;;10.33;100.00
3464;BME280;3551;41.578;24.706;2023-04-26T00:57:10;90231.50;;;10.39;100.00
3464;BME280;3551;41.578;24.706;2023-04-26T00:59:37;90225.25;;;10.45;100.00
3464;BME280;3551;41.578;24.706;2023-04-26T01:02:04;90235.66;;;10.59;100.00
3464;BME280;3551;41.578;24.706;2023-04-26T01:04:32;90227.31;;;10.38;100.00
3464;BME280;3551;41.578;24.706;2023-04-26T01:06:59;90223.13;;;9.97;100.00
3464;BME280;3551;41.578;24.706;2023-04-26T01:09:25;90231.06;;;10.01;100.00
3464;BME280;3551;41.578;24.706;2023-04-26T01:11:53;90232.28;;;9.77;100.00
3464;BME280;3551;41.578;24.706;2023-04-26T01:14:22;90230.84;;;9.49;100.00
3464;BME280;3551;41.578;24.706;2023-04-26T01:16:49;90230.75;;;9.76;100.00
3464;BME280;3551;41.578;24.706;2023-04-26T01:19:16;90239.22;;;9.94;100.00
3464;BME280;3551;41.578;24.706;2023-04-26T01:21:44;90235.50;;;10.07;100.00
3464;BME280;3551;41.578;24.706;2023-04-26T01:24:12;90236.59;;;10.10;100.00
3464;BME280;3551;41.578;24.706;2023-04-26T01:26:39;90237.91;;;10.02;100.00
3464;BME280;3551;41.578;24.706;2023-04-26T01:29:13;90238.88;;;9.92;100.00
3464;BME280;3551;41.578;24.706;2023-04-26T01:31:40;90238.38;;;9.97;100.00
3464;BME280;3551;41.578;24.706;2023-04-26T01:34:06;90238.31;;;10.00;100.00
3464;BME280;3551;41.578;24.706;2023-04-26T01:36:33;90239.25;;;10.13;100.00
3464;BME280;3551;41.578;24.706;2023-04-26T01:39:00;90232.31;;;10.16;100.00
3464;BME280;3551;41.578;24.706;2023-04-26T01:41:28;90233.97;;;9.87;100.00
3464;BME280;3551;41.578;24.706;2023-04-26T01:43:55;90229.34;;;9.91;100.00
3464;BME280;3551;41.578;24.706;2023-04-26T01:46:21;90230.59;;;9.17;100.00
3464;BME280;3551;41.578;24.706;2023-04-26T01:48:48;90237.69;;;9.27;100.00
3464;BME280;3551;41.578;24.706;2023-04-26T01:51:15;90231.97;;;9.51;100.00
3464;BME280;3551;41.578;24.706;2023-04-26T01:53:42;90230.41;;;9.31;100.00
3464;BME280;3551;41.578;24.706;2023-04-26T01:56:08;90228.03;;;9.36;100.00
3464;BME280;3551;41.578;24.706;2023-04-26T01:58:36;90229.78;;;9.43;100.00
3464;BME280;3551;41.578;24.706;2023-04-26T02:01:04;90233.28;;;9.63;100.00
3464;BME280;3551;41.578;24.706;2023-04-26T02:03:31;90233.16;;;9.70;100.00
3464;BME280;3551;41.578;24.706;2023-04-26T02:05:57;90238.00;;;9.75;100.00
3464;BME280;3551;41.578;24.706;2023-04-26T02:08:24;90235.88;;;9.67;100.00
3464;BME280;3551;41.578;24.706;2023-04-26T02:10:51;90238.38;;;9.77;100.00
3464;BME280;3551;41.578;24.706;2023-04-26T02:13:17;90226.50;;;9.58;100.00
3464;BME280;3551;41.578;24.706;2023-04-26T02:15:46;90226.63;;;9.51;100.00
3464;BME280;3551;41.578;24.706;2023-04-26T02:18:13;90215.56;;;9.73;100.00
3464;BME280;3551;41.578;24.706;2023-04-26T02:20:40;90206.97;;;9.42;100.00
3464;BME280;3551;41.578;24.706;2023-04-26T02:23:08;90198.47;;;9.47;100.00
3464;BME280;3551;41.578;24.706;2023-04-26T02:25:35;90205.41;;;9.64;100.00
3464;BME280;3551;41.578;24.706;2023-04-26T02:28:02;90211.34;;;9.52;100.00
3464;BME280;3551;41.578;24.706;2023-04-26T02:30:29;90212.97;;;9.46;100.00
3464;BME280;3551;41.578;24.706;2023-04-26T02:32:57;90217.28;;;9.40;100.00
3464;BME280;3551;41.578;24.706;2023-04-26T02:35:24;90213.78;;;9.43;100.00
3464;BME280;3551;41.578;24.706;2023-04-26T02:37:51;90213.78;;;9.43;100.00
3464;BME280;3551;41.578;24.706;2023-04-26T02:40:18;90207.25;;;9.01;100.00
3464;BME280;3551;41.578;24.706;2023-04-26T02:42:45;90213.47;;;9.18;100.00
3464;BME280;3551;41.578;24.706;2023-04-26T02:45:12;90217.97;;;9.44;100.00
3464;BME280;3551;41.578;24.706;2023-04-26T02:47:39;90219.09;;;9.66;100.00
3464;BME280;3551;41.578;24.706;2023-04-26T02:50:07;90223.44;;;9.37;100.00
3464;BME280;3551;41.578;24.706;2023-04-26T02:52:34;90215.69;;;8.46;100.00
3464;BME280;3551;41.578;24.706;2023-04-26T02:55:01;90220.69;;;8.40;100.00
3464;BME280;3551;41.578;24.706;2023-04-26T02:57:28;90226.59;;;8.55;100.00
3464;BME280;3551;41.578;24.706;2023-04-26T02:59:55;90223.47;;;8.60;100.00
3464;BME280;3551;41.578;24.706;2023-04-26T03:02:22;90221.00;;;8.12;100.00
3464;BME280;3551;41.578;24.706;2023-04-26T03:04:49;90224.16;;;8.04;100.00
3464;BME280;3551;41.578;24.706;2023-04-26T03:07:17;90225.66;;;8.38;100.00
3464;BME280;3551;41.578;24.706;2023-04-26T03:09:43;90226.28;;;8.76;100.00
3464;BME280;3551;41.578;24.706;2023-04-26T03:12:10;90229.50;;;8.64;100.00
3464;BME280;3551;41.578;24.706;2023-04-26T03:14:37;90238.19;;;8.68;100.00
3464;BME280;3551;41.578;24.706;2023-04-26T03:17:03;90233.84;;;8.81;100.00
3464;BME280;3551;41.578;24.706;2023-04-26T03:19:30;90230.00;;;8.82;100.00
3464;BME280;3551;41.578;24.706;2023-04-26T03:21:57;90236.69;;;8.94;100.00
3464;BME280;3551;41.578;24.706;2023-04-26T03:24:25;90242.94;;;8.84;100.00
3464;BME280;3551;41.578;24.706;2023-04-26T03:26:51;90247.59;;;8.76;100.00
3464;BME280;3551;41.578;24.706;2023-04-26T03:29:18;90241.53;;;8.99;100.00
3464;BME280;3551;41.578;24.706;2023-04-26T03:31:44;90237.72;;;9.00;100.00
3464;BME280;3551;41.578;24.706;2023-04-26T03:34:11;90244.34;;;8.92;100.00
3464;BME280;3551;41.578;24.706;2023-04-26T03:36:38;90242.25;;;9.03;100.00
3464;BME280;3551;41.578;24.706;2023-04-26T03:39:04;90249.41;;;8.83;100.00
3464;BME280;3551;41.578;24.706;2023-04-26T03:41:33;90239.75;;;8.92;100.00
3464;BME280;3551;41.578;24.706;2023-04-26T03:44:01;90243.91;;;8.93;100.00
3464;BME280;3551;41.578;24.706;2023-04-26T03:46:27;90239.09;;;8.85;100.00
3464;BME280;3551;41.578;24.706;2023-04-26T03:48:54;90246.28;;;8.88;100.00
3464;BME280;3551;41.578;24.706;2023-04-26T03:51:21;90246.16;;;8.98;100.00
3464;BME280;3551;41.578;24.706;2023-04-26T03:53:47;90249.09;;;9.04;100.00
3464;BME280;3551;41.578;24.706;2023-04-26T03:56:15;90243.31;;;9.09;100.00
3464;BME280;3551;41.578;24.706;2023-04-26T03:58:43;90245.69;;;9.03;100.00
3464;BME280;3551;41.578;24.706;2023-04-26T04:01:10;90242.56;;;8.82;100.00
3464;BME280;3551;41.578;24.706;2023-04-26T04:03:37;90239.06;;;8.88;100.00
3464;BME280;3551;41.578;24.706;2023-04-26T04:06:04;90233.63;;;8.95;100.00
3464;BME280;3551;41.578;24.706;2023-04-26T04:08:30;90234.88;;;8.87;100.00
3464;BME280;3551;41.578;24.706;2023-04-26T04:10:58;90236.22;;;8.99;100.00
3464;BME280;3551;41.578;24.706;2023-04-26T04:13:25;90237.13;;;8.62;100.00
3464;BME280;3551;41.578;24.706;2023-04-26T04:15:53;90239.69;;;8.42;100.00
3464;BME280;3551;41.578;24.706;2023-04-26T04:18:20;90237.28;;;8.18;100.00
3464;BME280;3551;41.578;24.706;2023-04-26T04:20:47;90235.97;;;8.36;100.00
3464;BME280;3551;41.578;24.706;2023-04-26T04:23:13;90242.53;;;8.28;100.00
3464;BME280;3551;41.578;24.706;2023-04-26T04:25:40;90236.69;;;9.17;100.00
3464;BME280;3551;41.578;24.706;2023-04-26T04:28:08;90242.31;;;9.92;100.00
3464;BME280;3551;41.578;24.706;2023-04-26T04:30:35;90239.94;;;10.73;100.00
3464;BME280;3551;41.578;24.706;2023-04-26T04:33:03;90237.50;;;11.30;100.00
3464;BME280;3551;41.578;24.706;2023-04-26T04:35:30;90238.75;;;12.19;100.00
3464;BME280;3551;41.578;24.706;2023-04-26T04:37:58;90242.66;;;12.72;100.00
3464;BME280;3551;41.578;24.706;2023-04-26T04:40:24;90236.56;;;12.97;95.01
3464;BME280;3551;41.578;24.706;2023-04-26T04:42:51;90230.44;;;13.60;89.30
3464;BME280;3551;41.578;24.706;2023-04-26T04:45:19;90240.38;;;14.19;83.55
3464;BME280;3551;41.578;24.706;2023-04-26T04:47:45;90240.00;;;14.07;76.17
3464;BME280;3551;41.578;24.706;2023-04-26T04:50:13;90236.69;;;14.03;73.66
3464;BME280;3551;41.578;24.706;2023-04-26T04:52:40;90239.09;;;13.76;74.69
3464;BME280;3551;41.578;24.706;2023-04-26T04:55:07;90236.78;;;13.53;75.25
3464;BME280;3551;41.578;24.706;2023-04-26T04:57:34;90238.03;;;13.74;74.88
3464;BME280;3551;41.578;24.706;2023-04-26T05:00:01;90237.66;;;13.63;74.78
3464;BME280;3551;41.578;24.706;2023-04-26T05:02:31;90234.88;;;14.22;72.47
3464;BME280;3551;41.578;24.706;2023-04-26T05:04:58;90232.38;;;14.28;68.59
3464;BME280;3551;41.578;24.706;2023-04-26T05:07:27;90227.53;;;14.57;67.50
3464;BME280;3551;41.578;24.706;2023-04-26T05:09:53;90229.81;;;14.58;70.20
3464;BME280;3551;41.578;24.706;2023-04-26T05:12:20;90235.31;;;14.55;69.81
3464;BME280;3551;41.578;24.706;2023-04-26T05:14:47;90233.38;;;14.55;70.33
3464;BME280;3551;41.578;24.706;2023-04-26T05:17:14;90226.53;;;14.63;70.10
3464;BME280;3551;41.578;24.706;2023-04-26T05:19:41;90224.56;;;15.07;65.27
3464;BME280;3551;41.578;24.706;2023-04-26T05:22:07;90220.72;;;15.17;65.88
3464;BME280;3551;41.578;24.706;2023-04-26T05:24:35;90216.94;;;15.46;66.32
3464;BME280;3551;41.578;24.706;2023-04-26T05:27:02;90224.63;;;15.65;67.15
3464;BME280;3551;41.578;24.706;2023-04-26T05:29:29;90211.03;;;15.29;67.66
3464;BME280;3551;41.578;24.706;2023-04-26T05:31:56;90224.66;;;15.74;66.63
3464;BME280;3551;41.578;24.706;2023-04-26T05:34:23;90219.97;;;15.57;65.16
3464;BME280;3551;41.578;24.706;2023-04-26T05:36:50;90214.31;;;15.64;63.26
3464;BME280;3551;41.578;24.706;2023-04-26T05:39:17;90215.28;;;15.08;64.36
3464;BME280;3551;41.578;24.706;2023-04-26T05:41:46;90212.41;;;14.72;66.94
3464;BME280;3551;41.578;24.706;2023-04-26T05:44:12;90215.59;;;14.02;67.15
3464;BME280;3551;41.578;24.706;2023-04-26T05:46:39;90214.50;;;14.77;63.32
3464;BME280;3551;41.578;24.706;2023-04-26T05:49:06;90216.25;;;15.33;64.54
3464;BME280;3551;41.578;24.706;2023-04-26T05:51:32;90218.84;;;15.94;62.43
3464;BME280;3551;41.578;24.706;2023-04-26T05:53:59;90217.66;;;15.95;64.47
3464;BME280;3551;41.578;24.706;2023-04-26T05:56:26;90213.19;;;16.38;61.13
3464;BME280;3551;41.578;24.706;2023-04-26T05:58:54;90208.72;;;16.25;57.17
3464;BME280;3551;41.578;24.706;2023-04-26T06:01:21;90207.06;;;16.37;57.67
3464;BME280;3551;41.578;24.706;2023-04-26T06:03:47;90211.72;;;16.55;55.88
3464;BME280;3551;41.578;24.706;2023-04-26T06:06:14;90204.06;;;16.62;57.81
3464;BME280;3551;41.578;24.706;2023-04-26T06:08:41;90210.22;;;16.63;57.46
3464;BME280;3551;41.578;24.706;2023-04-26T06:11:07;90203.16;;;16.29;55.48
3464;BME280;3551;41.578;24.706;2023-04-26T06:13:34;90204.50;;;16.52;52.83
3464;BME280;3551;41.578;24.706;2023-04-26T06:16:02;90201.22;;;16.57;55.29
3464;BME280;3551;41.578;24.706;2023-04-26T06:18:29;90203.34;;;17.22;55.43
3464;BME280;3551;41.578;24.706;2023-04-26T06:20:56;90194.25;;;17.34;53.96
3464;BME280;3551;41.578;24.706;2023-04-26T06:23:22;90192.50;;;17.64;55.57
3464;BME280;3551;41.578;24.706;2023-04-26T06:25:49;90192.25;;;17.85;51.45
3464;BME280;3551;41.578;24.706;2023-04-26T06:28:16;90177.53;;;17.12;52.64
3464;BME280;3551;41.578;24.706;2023-04-26T06:30:42;90182.25;;;17.35;52.82
3464;BME280;3551;41.578;24.706;2023-04-26T06:33:10;90177.34;;;17.24;53.68
3464;BME280;3551;41.578;24.706;2023-04-26T06:35:38;90181.00;;;17.54;56.62
3464;BME280;3551;41.578;24.706;2023-04-26T06:38:05;90182.06;;;18.04;54.12
3464;BME280;3551;41.578;24.706;2023-04-26T06:40:32;90173.28;;;17.94;49.77
3464;BME280;3551;41.578;24.706;2023-04-26T06:43:01;90179.13;;;17.93;48.38
3464;BME280;3551;41.578;24.706;2023-04-26T06:45:28;90177.06;;;17.88;46.11
3464;BME280;3551;41.578;24.706;2023-04-26T06:47:55;90180.47;;;17.32;49.07
3464;BME280;3551;41.578;24.706;2023-04-26T06:50:26;90175.66;;;17.36;49.80
3464;BME280;3551;41.578;24.706;2023-04-26T06:52:52;90172.91;;;17.45;51.60
3464;BME280;3551;41.578;24.706;2023-04-26T06:55:19;90168.19;;;17.87;50.87
3464;BME280;3551;41.578;24.706;2023-04-26T06:57:46;90175.50;;;17.39;51.48
3464;BME280;3551;41.578;24.706;2023-04-26T07:00:13;90156.56;;;17.07;52.92
3464;BME280;3551;41.578;24.706;2023-04-26T07:02:40;90173.94;;;17.15;53.56
3464;BME280;3551;41.578;24.706;2023-04-26T07:05:07;90169.06;;;17.28;53.22
3464;BME280;3551;41.578;24.706;2023-04-26T07:07:35;90163.28;;;17.11;52.73
3464;BME280;3551;41.578;24.706;2023-04-26T07:10:02;90174.06;;;16.69;54.14
3464;BME280;3551;41.578;24.706;2023-04-26T07:12:28;90175.69;;;16.67;54.70
3464;BME280;3551;41.578;24.706;2023-04-26T07:14:56;90175.59;;;16.43;53.53
3464;BME280;3551;41.578;24.706;2023-04-26T07:17:22;90170.28;;;16.76;53.75
3464;BME280;3551;41.578;24.706;2023-04-26T07:19:49;90176.41;;;16.95;52.56
3464;BME280;3551;41.578;24.706;2023-04-26T07:22:22;90165.03;;;16.81;52.37
3464;BME280;3551;41.578;24.706;2023-04-26T07:24:50;90172.56;;;16.77;52.11
3464;BME280;3551;41.578;24.706;2023-04-26T07:27:16;90166.88;;;16.48;52.93
3464;BME280;3551;41.578;24.706;2023-04-26T07:29:43;90172.72;;;16.47;52.20
3464;BME280;3551;41.578;24.706;2023-04-26T07:32:10;90163.16;;;16.55;51.33
3464;BME280;3551;41.578;24.706;2023-04-26T07:34:37;90161.09;;;16.92;50.99
3464;BME280;3551;41.578;24.706;2023-04-26T07:37:03;90152.41;;;16.87;49.99
3464;BME280;3551;41.578;24.706;2023-04-26T07:39:31;90141.94;;;16.80;48.40
3464;BME280;3551;41.578;24.706;2023-04-26T07:41:59;90149.72;;;17.29;49.16
3464;BME280;3551;41.578;24.706;2023-04-26T07:44:26;90152.50;;;17.02;49.44
3464;BME280;3551;41.578;24.706;2023-04-26T07:46:52;90152.41;;;16.87;49.78
3464;BME280;3551;41.578;24.706;2023-04-26T07:49:20;90141.59;;;16.87;47.20
3464;BME280;3551;41.578;24.706;2023-04-26T07:51:47;90142.16;;;17.10;47.94
3464;BME280;3551;41.578;24.706;2023-04-26T07:54:15;90145.97;;;17.27;48.84
3464;BME280;3551;41.578;24.706;2023-04-26T07:56:42;90130.00;;;17.05;49.70
3464;BME280;3551;41.578;24.706;2023-04-26T07:59:10;90127.28;;;17.38;48.55
3464;BME280;3551;41.578;24.706;2023-04-26T08:01:37;90133.91;;;17.37;48.27
3464;BME280;3551;41.578;24.706;2023-04-26T08:04:03;90130.53;;;16.85;49.82
3464;BME280;3551;41.578;24.706;2023-04-26T08:06:30;90132.56;;;16.58;50.34
3464;BME280;3551;41.578;24.706;2023-04-26T08:08:58;90128.69;;;16.22;51.59
3464;BME280;3551;41.578;24.706;2023-04-26T08:11:24;90131.03;;;16.57;52.40
3464;BME280;3551;41.578;24.706;2023-04-26T08:13:51;90134.59;;;16.81;53.23
3464;BME280;3551;41.578;24.706;2023-04-26T08:16:19;90134.22;;;16.01;54.14
3464;BME280;3551;41.578;24.706;2023-04-26T08:18:47;90134.28;;;15.43;56.26
3464;BME280;3551;41.578;24.706;2023-04-26T08:21:14;90127.44;;;15.02;57.15
3464;BME280;3551;41.578;24.706;2023-04-26T08:23:41;90118.38;;;15.17;57.17
3464;BME280;3551;41.578;24.706;2023-04-26T08:26:07;90128.44;;;15.44;53.02
3464;BME280;3551;41.578;24.706;2023-04-26T08:28:35;90151.44;;;15.94;50.97
3464;BME280;3551;41.578;24.706;2023-04-26T08:31:02;90147.25;;;16.11;47.25
3464;BME280;3551;41.578;24.706;2023-04-26T08:33:30;90153.41;;;16.12;54.53
3464;BME280;3551;41.578;24.706;2023-04-26T08:35:57;90148.47;;;16.19;54.60
3464;BME280;3551;41.578;24.706;2023-04-26T08:38:25;90166.88;;;15.85;54.76
3464;BME280;3551;41.578;24.706;2023-04-26T08:40:51;90170.31;;;15.67;53.75
3464;BME280;3551;41.578;24.706;2023-04-26T08:43:20;90160.75;;;15.93;56.54
3464;BME280;3551;41.578;24.706;2023-04-26T08:45:47;90163.59;;;15.99;54.18
3464;BME280;3551;41.578;24.706;2023-04-26T08:48:14;90176.19;;;16.11;53.00
3464;BME280;3551;41.578;24.706;2023-04-26T08:50:44;90172.00;;;16.10;55.61
3464;BME280;3551;41.578;24.706;2023-04-26T08:53:12;90175.88;;;16.00;56.80
3464;BME280;3551;41.578;24.706;2023-04-26T08:55:39;90180.09;;;16.19;57.26
3464;BME280;3551;41.578;24.706;2023-04-26T08:58:06;90173.16;;;16.00;56.88
3464;BME280;3551;41.578;24.706;2023-04-26T09:00:33;90180.06;;;16.10;56.45
3464;BME280;3551;41.578;24.706;2023-04-26T09:03:02;90183.06;;;15.85;57.62
3464;BME280;3551;41.578;24.706;2023-04-26T09:05:28;90178.53;;;15.63;58.14
3464;BME280;3551;41.578;24.706;2023-04-26T09:07:58;90181.09;;;15.67;58.62
3464;BME280;3551;41.578;24.706;2023-04-26T09:10:26;90177.50;;;15.79;57.72
3464;BME280;3551;41.578;24.706;2023-04-26T09:12:53;90183.94;;;15.91;57.06
3464;BME280;3551;41.578;24.706;2023-04-26T09:15:20;90182.50;;;16.17;53.90
3464;BME280;3551;41.578;24.706;2023-04-26T09:17:47;90172.28;;;16.39;53.74
3464;BME280;3551;41.578;24.706;2023-04-26T09:20:16;90165.97;;;16.33;52.59
3464;BME280;3551;41.578;24.706;2023-04-26T09:22:43;90163.13;;;16.37;52.08
3464;BME280;3551;41.578;24.706;2023-04-26T09:25:13;90151.16;;;16.10;47.48
3464;BME280;3551;41.578;24.706;2023-04-26T09:27:41;90148.75;;;15.67;48.62
3464;BME280;3551;41.578;24.706;2023-04-26T09:30:10;90149.63;;;15.82;47.67
3464;BME280;3551;41.578;24.706;2023-04-26T09:32:44;90144.25;;;15.91;49.22
3464;BME280;3551;41.578;24.706;2023-04-26T09:35:21;90137.38;;;15.99;53.39
3464;BME280;3551;41.578;24.706;2023-04-26T09:37:50;90142.78;;;15.90;53.58
3464;BME280;3551;41.578;24.706;2023-04-26T09:40:18;90138.72;;;16.13;54.10
3464;BME280;3551;41.578;24.706;2023-04-26T09:42:46;90142.91;;;16.23;56.32
3464;BME280;3551;41.578;24.706;2023-04-26T09:45:12;90137.50;;;16.41;55.79
3464;BME280;3551;41.578;24.706;2023-04-26T09:47:42;90142.91;;;16.23;53.90
3464;BME280;3551;41.578;24.706;2023-04-26T09:50:08;90140.78;;;16.45;54.68
3464;BME280;3551;41.578;24.706;2023-04-26T09:52:41;90132.69;;;16.63;53.10
3464;BME280;3551;41.578;24.706;2023-04-26T09:55:08;90130.41;;;16.53;54.19
3464;BME280;3551;41.578;24.706;2023-04-26T09:57:41;90131.31;;;16.68;55.07
3464;BME280;3551;41.578;24.706;2023-04-26T10:00:08;90122.22;;;16.98;54.47
3464;BME280;3551;41.578;24.706;2023-04-26T10:02:36;90129.72;;;17.03;53.23
3464;BME280;3551;41.578;24.706;2023-04-26T10:05:05;90134.47;;;17.08;53.64
3464;BME280;3551;41.578;24.706;2023-04-26T10:07:32;90122.28;;;17.22;54.36
3464;BME280;3551;41.578;24.706;2023-04-26T10:09:59;90121.13;;;17.05;54.12
3464;BME280;3551;41.578;24.706;2023-04-26T10:12:28;90115.47;;;16.94;53.36
3464;BME280;3551;41.578;24.706;2023-04-26T10:14:56;90115.34;;;16.88;54.40
3464;BME280;3551;41.578;24.706;2023-04-26T10:17:23;90133.13;;;16.62;55.30
3464;BME280;3551;41.578;24.706;2023-04-26T10:19:51;90107.94;;;16.56;55.70
3464;BME280;3551;41.578;24.706;2023-04-26T10:22:21;90108.81;;;16.53;54.43
3464;BME280;3551;41.578;24.706;2023-04-26T10:24:50;90120.09;;;16.60;53.79
3464;BME280;3551;41.578;24.706;2023-04-26T10:27:25;90117.38;;;16.69;54.52
3464;BME280;3551;41.578;24.706;2023-04-26T10:30:14;90112.28;;;16.44;55.74
3464;BME280;3551;41.578;24.706;2023-04-26T10:38:28;90109.19;;;15.82;50.31
3464;BME280;3551;41.578;24.706;2023-04-26T10:40:55;90098.28;;;15.58;48.02
3464;BME280;3551;41.578;24.706;2023-04-26T10:43:27;90094.06;;;15.57;50.44
3464;BME280;3551;41.578;24.706;2023-04-26T10:45:56;90100.38;;;15.63;49.72
3464;BME280;3551;41.578;24.706;2023-04-26T10:48:28;90109.69;;;15.13;53.87
3464;BME280;3551;41.578;24.706;2023-04-26T10:51:07;90106.88;;;14.46;57.63
3464;BME280;3551;41.578;24.706;2023-04-26T10:59:06;90112.94;;;13.38;63.85
3464;BME280;3551;41.578;24.706;2023-04-26T11:01:34;90112.41;;;13.43;64.71
3464;BME280;3551;41.578;24.706;2023-04-26T11:04:04;90114.19;;;13.25;66.06
3464;BME280;3551;41.578;24.706;2023-04-26T11:06:46;90114.09;;;13.16;66.76
3464;BME280;3551;41.578;24.706;2023-04-26T11:09:31;90112.91;;;12.79;68.95
3464;BME280;3551;41.578;24.706;2023-04-26T11:11:58;90109.50;;;12.66;69.89
3464;BME280;3551;41.578;24.706;2023-04-26T11:14:25;90120.41;;;12.59;72.16
3464;BME280;3551;41.578;24.706;2023-04-26T11:16:53;90115.28;;;12.39;72.70
3464;BME280;3551;41.578;24.706;2023-04-26T11:19:20;90111.53;;;12.36;75.21
3464;BME280;3551;41.578;24.706;2023-04-26T11:21:47;90109.47;;;12.28;77.64
3464;BME280;3551;41.578;24.706;2023-04-26T11:24:14;90116.97;;;12.33;77.61
3464;BME280;3551;41.578;24.706;2023-04-26T11:26:41;90129.84;;;12.25;79.68
3464;BME280;3551;41.578;24.706;2023-04-26T11:29:09;90144.06;;;12.10;80.11
3464;BME280;3551;41.578;24.706;2023-04-26T11:31:49;90149.84;;;12.08;81.13
3464;BME280;3551;41.578;24.706;2023-04-26T11:34:17;90158.25;;;12.35;81.81
3464;BME280;3551;41.578;24.706;2023-04-26T11:36:46;90157.22;;;12.71;79.66
3464;BME280;3551;41.578;24.706;2023-04-26T11:39:13;90159.38;;;12.76;75.15
3464;BME280;3551;41.578;24.706;2023-04-26T11:41:40;90164.63;;;12.79;72.57
3464;BME280;3551;41.578;24.706;2023-04-26T11:44:07;90159.16;;;12.83;71.54
3464;BME280;3551;41.578;24.706;2023-04-26T11:46:36;90153.03;;;12.82;73.11
3464;BME280;3551;41.578;24.706;2023-04-26T11:49:03;90155.72;;;12.57;72.51
3464;BME280;3551;41.578;24.706;2023-04-26T11:51:33;90159.09;;;12.32;72.94
3464;BME280;3551;41.578;24.706;2023-04-26T11:54:00;90171.00;;;12.19;79.40
3464;BME280;3551;41.578;24.706;2023-04-26T11:56:27;90162.00;;;12.38;83.14
3464;BME280;3551;41.578;24.706;2023-04-26T11:58:55;90170.44;;;12.65;83.56
3464;BME280;3551;41.578;24.706;2023-04-26T12:01:22;90173.09;;;12.40;84.67
3464;BME280;3551;41.578;24.706;2023-04-26T12:03:50;90176.00;;;12.46;85.58
3464;BME280;3551;41.578;24.706;2023-04-26T12:06:16;90178.59;;;12.20;87.10
3464;BME280;3551;41.578;24.706;2023-04-26T12:08:49;90184.34;;;11.77;92.68
3464;BME280;3551;41.578;24.706;2023-04-26T12:11:16;90175.19;;;11.46;99.80
3464;BME280;3551;41.578;24.706;2023-04-26T12:13:44;90185.63;;;11.73;100.00
3464;BME280;3551;41.578;24.706;2023-04-26T12:16:11;90187.00;;;11.16;100.00
3464;BME280;3551;41.578;24.706;2023-04-26T12:18:38;90181.47;;;11.40;100.00
3464;BME280;3551;41.578;24.706;2023-04-26T12:21:04;90192.16;;;11.40;99.64
3464;BME280;3551;41.578;24.706;2023-04-26T12:23:38;90196.16;;;11.64;100.00
3464;BME280;3551;41.578;24.706;2023-04-26T12:26:07;90202.13;;;11.55;89.01
3464;BME280;3551;41.578;24.706;2023-04-26T12:28:36;90191.19;;;11.17;93.02
3464;BME280;3551;41.578;24.706;2023-04-26T12:31:03;90194.13;;;11.68;98.18
3464;BME280;3551;41.578;24.706;2023-04-26T12:33:30;90199.88;;;11.38;92.41
3464;BME280;3551;41.578;24.706;2023-04-26T12:35:57;90198.00;;;11.51;96.79
3464;BME280;3551;41.578;24.706;2023-04-26T12:38:34;90197.44;;;11.43;93.00
3464;BME280;3551;41.578;24.706;2023-04-26T12:41:01;90202.25;;;11.80;90.66
3464;BME280;3551;41.578;24.706;2023-04-26T12:43:29;90205.69;;;11.81;86.17
3464;BME280;3551;41.578;24.706;2023-04-26T12:45:56;90213.78;;;11.94;86.21
3464;BME280;3551;41.578;24.706;2023-04-26T12:48:23;90224.88;;;12.08;88.44
3464;BME280;3551;41.578;24.706;2023-04-26T12:50:49;90220.41;;;11.89;85.70
3464;BME280;3551;41.578;24.706;2023-04-26T12:53:16;90230.97;;;11.80;84.90
3464;BME280;3551;41.578;24.706;2023-04-26T12:55:43;90230.31;;;11.44;83.60
3464;BME280;3551;41.578;24.706;2023-04-26T12:58:10;90228.06;;;11.42;84.52
3464;BME280;3551;41.578;24.706;2023-04-26T13:00:38;90225.19;;;10.85;84.34
3464;BME280;3551;41.578;24.706;2023-04-26T13:03:04;90232.22;;;11.11;86.46
3464;BME280;3551;41.578;24.706;2023-04-26T13:05:31;90240.78;;;11.38;87.04
3464;BME280;3551;41.578;24.706;2023-04-26T13:07:58;90240.44;;;11.36;85.99
3464;BME280;3551;41.578;24.706;2023-04-26T13:10:26;90239.09;;;11.12;90.81
3464;BME280;3551;41.578;24.706;2023-04-26T13:12:53;90243.38;;;11.25;91.32
3464;BME280;3551;41.578;24.706;2023-04-26T13:15:20;90239.41;;;11.30;90.11
3464;BME280;3551;41.578;24.706;2023-04-26T13:17:50;90249.31;;;11.17;90.42
3464;BME280;3551;41.578;24.706;2023-04-26T13:20:17;90245.50;;;10.82;94.23
3464;BME280;3551;41.578;24.706;2023-04-26T13:22:43;90242.72;;;10.50;93.12